Time;durP1;ratioP1;P1;durP2;ratioP2;P2;SDS_P1;SDS_P2;PMS_P1;PMS_P2;Temp;Humidity;BMP_temperature;BMP_pressure;BME280_temperature;BME280_humidity;BME280_pressure;Samples;Min_cycle;Max_cycle;Signal;HPM_P1;HPM_P2
2022/09/04 00:02:36;;;;;;;9.40;8.50;;;18.70;99.90;;;;;;5058116;28;37415;-77
2022/09/04 00:05:24;;;;;;;9.43;8.52;;;18.70;99.90;;;;;;5084473;28;38550;-77
2022/09/04 00:08:26;;;;;;;10.60;8.80;;;18.70;99.90;;;;;;5076169;28;48698;-77
2022/09/04 00:11:24;;;;;;;10.40;9.40;;;18.70;99.90;;;;;;5060165;28;46947;-78
2022/09/04 00:14:13;;;;;;;11.77;10.68;;;18.70;99.90;;;;;;5081094;28;48672;-78
2022/09/04 00:16:57;;;;;;;11.65;10.45;;;18.70;99.90;;;;;;5050693;28;47242;-78
2022/09/04 00:19:37;;;;;;;10.88;9.65;;;18.70;99.90;;;;;;5063767;28;36332;-78
2022/09/04 00:22:27;;;;;;;11.70;10.40;;;18.60;99.90;;;;;;5056594;28;38787;-79
2022/09/04 00:25:06;;;;;;;10.88;9.77;;;18.60;99.90;;;;;;5063650;28;37840;-78
2022/09/04 00:27:43;;;;;;;11.38;10.27;;;18.60;99.90;;;;;;5056718;28;47010;-78
2022/09/04 00:30:19;;;;;;;10.80;9.80;;;18.50;99.90;;;;;;5046858;28;37918;-78
2022/09/04 00:33:03;;;;;;;10.88;9.88;;;18.60;99.90;;;;;;5048834;28;39859;-78
2022/09/04 00:35:35;;;;;;;11.88;10.68;;;18.60;99.90;;;;;;5058710;28;47273;-78
2022/09/04 00:38:14;;;;;;;10.85;9.75;;;18.60;99.90;;;;;;5058754;28;37957;-78
2022/09/04 00:40:42;;;;;;;12.20;10.85;;;18.50;99.90;;;;;;5075980;28;36272;-78
2022/09/04 00:43:26;;;;;;;12.93;11.60;;;18.50;99.90;;;;;;5076758;28;38977;-77
2022/09/04 00:46:26;;;;;;;11.52;10.43;;;18.50;99.90;;;;;;5075380;28;39481;-77
2022/09/04 00:49:20;;;;;;;11.57;10.57;;;18.40;99.90;;;;;;5057250;28;47198;-76
2022/09/04 00:52:20;;;;;;;12.02;10.88;;;18.40;99.90;;;;;;5074359;28;49128;-75
2022/09/04 00:55:11;;;;;;;13.25;11.98;;;18.40;99.90;;;;;;5058272;28;47029;-76
2022/09/04 00:58:15;;;;;;;11.88;10.65;;;18.30;99.90;;;;;;5072778;28;48950;-77
2022/09/04 01:00:45;;;;;;;14.65;13.07;;;18.30;99.90;;;;;;5067971;28;49786;-77
2022/09/04 01:03:39;;;;;;;13.70;12.40;;;18.30;99.90;;;;;;5076767;28;38027;-77
2022/09/04 01:06:23;;;;;;;12.85;11.68;;;18.30;99.90;;;;;;5060964;28;39001;-77
2022/09/04 01:09:29;;;;;;;14.82;12.10;;;18.30;99.90;;;;;;5066699;28;39986;-77
2022/09/04 01:12:25;;;;;;;13.32;12.07;;;18.20;99.90;;;;;;5074384;28;48324;-77
2022/09/04 01:15:13;;;;;;;12.77;11.48;;;18.10;99.90;;;;;;5070967;28;46954;-78
2022/09/04 01:18:06;;;;;;;13.80;12.50;;;18.10;99.90;;;;;;5071046;28;48294;-77
2022/09/04 01:20:54;;;;;;;14.15;12.85;;;18.00;99.90;;;;;;5051742;28;47064;-77
2022/09/04 01:23:23;;;;;;;12.30;11.10;;;18.00;99.90;;;;;;5055521;28;38624;-79
2022/09/04 01:25:56;;;;;;;13.13;11.93;;;18.00;99.90;;;;;;5063772;28;39103;-77
2022/09/04 01:28:55;;;;;;;14.18;12.88;;;17.90;99.90;;;;;;5057077;28;38648;-77
2022/09/04 01:31:27;;;;;;;15.45;12.85;;;17.90;99.90;;;;;;5053008;28;40037;-77
2022/09/04 01:34:24;;;;;;;14.90;13.50;;;17.90;99.90;;;;;;5065244;28;38729;-77
2022/09/04 01:37:23;;;;;;;13.27;11.98;;;17.90;99.90;;;;;;5053932;28;49217;-78
2022/09/04 01:40:13;;;;;;;14.57;13.10;;;17.80;99.90;;;;;;5059036;28;47069;-78
2022/09/04 01:42:46;;;;;;;14.18;12.77;;;17.80;99.90;;;;;;5063914;28;49772;-78
2022/09/04 01:45:13;;;;;;;14.23;12.73;;;17.80;99.90;;;;;;5056320;28;38063;-78
2022/09/04 01:47:45;;;;;;;14.13;12.63;;;17.80;99.90;;;;;;5056208;28;36863;-77
2022/09/04 01:50:22;;;;;;;16.40;14.70;;;17.80;99.90;;;;;;5055843;28;38632;-77
2022/09/04 01:52:48;;;;;;;15.85;14.35;;;17.80;99.90;;;;;;5056164;28;38912;-78
2022/09/04 01:55:44;;;;;;;14.38;12.90;;;17.80;99.90;;;;;;5054637;28;39195;-78
2022/09/04 01:58:22;;;;;;;14.63;13.13;;;17.70;99.90;;;;;;5051692;28;38062;-77
2022/09/04 02:01:14;;;;;;;15.45;13.93;;;17.70;99.90;;;;;;5051642;28;38316;-78
2022/09/04 02:03:45;;;;;;;16.35;14.60;;;17.70;99.90;;;;;;5056821;28;47348;-78
2022/09/04 02:06:40;;;;;;;14.40;13.00;;;17.70;99.90;;;;;;5056276;28;39087;-78
2022/09/04 02:09:21;;;;;;;14.50;13.05;;;17.70;99.90;;;;;;5047639;28;37606;-79
2022/09/04 02:12:04;;;;;;;15.07;13.57;;;17.70;99.90;;;;;;5064252;28;39595;-78
2022/09/04 02:14:53;;;;;;;13.85;12.55;;;17.70;99.90;;;;;;5055622;28;47211;-78
2022/09/04 02:17:50;;;;;;;14.70;12.82;;;17.60;99.90;;;;;;5046465;28;39708;-77
2022/09/04 02:20:23;;;;;;;15.18;13.68;;;17.60;99.90;;;;;;5052101;28;38062;-78
2022/09/04 02:22:55;;;;;;;14.95;13.52;;;17.60;99.90;;;;;;5047767;28;39565;-77
2022/09/04 02:25:48;;;;;;;15.13;13.73;;;17.50;99.90;;;;;;5064086;28;38759;-78
2022/09/04 02:28:40;;;;;;;14.75;13.27;;;17.50;99.90;;;;;;5063140;28;40328;-78
2022/09/04 02:31:18;;;;;;;14.40;12.93;;;17.50;99.90;;;;;;5052705;28;37685;-78
2022/09/04 02:33:55;;;;;;;13.40;12.20;;;17.40;99.90;;;;;;5063982;28;39614;-78
2022/09/04 02:36:21;;;;;;;14.93;13.52;;;17.40;99.90;;;;;;5055696;28;39084;-78
2022/09/04 02:39:00;;;;;;;16.85;14.10;;;17.40;99.90;;;;;;5055445;28;37880;-77
2022/09/04 02:41:36;;;;;;;15.68;14.07;;;17.40;99.90;;;;;;5052543;28;38581;-77
2022/09/04 02:44:26;;;;;;;15.50;13.98;;;17.40;99.90;;;;;;5049716;28;39541;-78
2022/09/04 02:47:24;;;;;;;14.68;13.20;;;17.40;99.90;;;;;;5036313;28;37412;-77
2022/09/04 02:50:02;;;;;;;14.80;13.35;;;17.40;99.90;;;;;;5070987;28;48218;-78
2022/09/04 02:52:50;;;;;;;15.10;13.60;;;17.30;99.90;;;;;;5051874;28;47332;-78
2022/09/04 02:55:31;;;;;;;16.95;15.25;;;17.30;99.90;;;;;;5079054;28;40079;-78
2022/09/04 02:58:21;;;;;;;14.75;13.25;;;17.30;99.90;;;;;;5072994;28;39054;-78
2022/09/04 03:01:13;;;;;;;16.42;14.73;;;17.20;99.90;;;;;;5050731;28;45786;-77
2022/09/04 03:03:58;;;;;;;;;;;17.20;99.90;;;;;;5056069;28;47249;-78
2022/09/04 03:06:53;;;;;;;18.70;16.83;;;17.20;99.90;;;;;;5076493;28;38561;-78
2022/09/04 03:09:31;;;;;;;17.80;16.05;;;17.20;99.90;;;;;;5069095;28;39046;-78
2022/09/04 03:12:04;;;;;;;18.58;16.67;;;17.20;99.90;;;;;;5074296;28;38427;-78
2022/09/04 03:14:41;;;;;;;18.95;16.77;;;17.30;99.90;;;;;;5074464;28;48725;-78
2022/09/04 03:17:15;;;;;;;18.33;16.15;;;17.30;99.90;;;;;;5065886;28;40255;-78
2022/09/04 03:19:53;;;;;;;20.25;15.77;;;17.30;99.90;;;;;;5068269;28;39479;-79
2022/09/04 03:22:35;;;;;;;18.35;16.65;;;17.30;99.90;;;;;;5071661;28;37960;-79
2022/09/04 03:25:08;;;;;;;19.58;17.55;;;17.30;99.90;;;;;;5055875;28;37067;-79
2022/09/04 03:27:34;;;;;;;19.38;17.25;;;17.30;99.90;;;;;;5078516;28;49260;-78
2022/09/04 03:30:06;;;;;;;17.92;16.13;;;17.30;99.90;;;;;;5078173;28;38977;-78
2022/09/04 03:32:38;;;;;;;18.00;16.08;;;17.30;99.90;;;;;;5053406;28;47020;-78
2022/09/04 03:35:25;;;;;;;18.95;16.02;;;17.20;99.90;;;;;;5049754;28;36573;-78
2022/09/04 03:37:57;;;;;;;15.82;14.23;;;17.20;99.90;;;;;;5075055;28;37016;-78
2022/09/04 03:40:32;;;;;;;;;;;17.20;99.90;;;;;;5056362;28;38456;-78
2022/09/04 03:43:30;;;;;;;17.73;15.93;;;17.20;99.90;;;;;;5056127;28;38124;-78
2022/09/04 03:46:04;;;;;;;15.98;14.38;;;17.20;99.90;;;;;;5074266;28;46921;-78
2022/09/04 03:48:54;;;;;;;20.02;17.88;;;17.10;99.90;;;;;;5055793;28;46912;-78
2022/09/04 03:51:28;;;;;;;18.30;16.50;;;17.10;99.90;;;;;;5054613;28;40317;-78
2022/09/04 03:54:27;;;;;;;18.65;16.67;;;17.10;99.90;;;;;;5055405;28;38312;-79
2022/09/04 03:57:02;;;;;;;20.60;18.52;;;17.10;99.90;;;;;;5052711;28;48315;-78
2022/09/04 03:59:45;;;;;;;21.00;18.95;;;17.00;99.90;;;;;;5057364;28;46926;-78
2022/09/04 04:02:22;;;;;;;18.92;17.02;;;17.10;99.90;;;;;;5075823;28;38255;-78
2022/09/04 04:05:23;;;;;;;19.00;17.02;;;17.00;99.90;;;;;;5075591;28;37534;-78
2022/09/04 04:08:08;;;;;;;20.48;18.25;;;17.00;99.90;;;;;;5055398;28;48228;-77
2022/09/04 04:10:47;;;;;;;20.95;18.90;;;16.90;99.90;;;;;;5075317;28;48983;-79
2022/09/04 04:13:33;;;;;;;18.80;16.80;;;16.90;99.90;;;;;;5074207;28;40498;-78
2022/09/04 04:16:20;;;;;;;22.80;19.33;;;16.80;99.90;;;;;;5082393;28;38156;-78
2022/09/04 04:19:09;;;;;;;21.65;19.48;;;16.80;99.90;;;;;;5075424;28;47067;-78
2022/09/04 04:22:05;;;;;;;18.67;16.85;;;16.80;99.90;;;;;;5069029;28;47102;-79
2022/09/04 04:24:43;;;;;;;22.00;19.75;;;16.80;99.90;;;;;;5071593;28;48156;-79
2022/09/04 04:27:24;;;;;;;20.67;18.05;;;16.80;99.90;;;;;;5075197;28;38972;-79
2022/09/04 04:30:00;;;;;;;23.25;20.83;;;16.80;99.90;;;;;;5076774;28;37269;-79
2022/09/04 04:32:57;;;;;;;20.65;18.35;;;16.80;99.90;;;;;;5057049;28;39131;-79
2022/09/04 04:35:53;;;;;;;24.98;22.30;;;16.70;99.90;;;;;;5079239;28;38127;-79
2022/09/04 04:38:29;;;;;;;25.85;23.13;;;16.70;99.90;;;;;;5070940;28;38342;-79
2022/09/04 04:40:58;;;;;;;23.67;20.65;;;16.70;99.90;;;;;;5073535;28;38008;-79
2022/09/04 04:43:28;;;;;;;24.30;21.80;;;16.70;99.90;;;;;;5081030;28;38462;-79
2022/09/04 04:46:02;;;;;;;27.90;24.90;;;16.70;99.90;;;;;;5075675;28;37109;-79
2022/09/04 04:49:08;;;;;;;27.08;23.95;;;16.80;99.90;;;;;;5054094;28;47410;-79
2022/09/04 04:52:18;;;;;;;28.33;25.20;;;16.70;99.90;;;;;;5073535;28;49118;-79
2022/09/04 04:55:12;;;;;;;22.25;19.85;;;16.70;99.90;;;;;;5023958;28;47694;-78
2022/09/04 04:57:44;;;;;;;26.40;23.48;;;16.70;99.90;;;;;;5080672;28;48496;-78
2022/09/04 05:00:21;;;;;;;26.80;23.50;;;16.70;99.90;;;;;;5075134;28;38901;-78
2022/09/04 05:03:02;;;;;;;27.08;24.20;;;16.70;99.90;;;;;;5075751;28;36918;-79
2022/09/04 05:05:45;;;;;;;24.65;21.70;;;16.70;99.90;;;;;;5062484;28;47348;-78
2022/09/04 05:08:29;;;;;;;26.25;23.40;;;16.70;99.90;;;;;;5069069;28;38727;-78
2022/09/04 05:11:22;;;;;;;26.20;23.55;;;16.70;99.90;;;;;;5068613;28;38369;-78
2022/09/04 05:14:29;;;;;;;37.08;29.73;;;16.70;99.90;;;;;;5073099;28;47346;-78
2022/09/04 05:17:18;;;;;;;29.10;23.65;;;16.70;99.90;;;;;;5051538;28;47947;-78
2022/09/04 05:20:22;;;;;;;24.67;22.02;;;16.70;99.90;;;;;;5022618;28;47300;-78
2022/09/04 05:22:57;;;;;;;23.92;21.52;;;16.70;99.90;;;;;;5053726;28;47182;-78
2022/09/04 05:25:23;;;;;;;24.60;22.00;;;16.70;99.90;;;;;;5055122;28;36770;-79
2022/09/04 05:28:28;;;;;;;24.02;21.63;;;16.60;99.90;;;;;;5071951;28;39713;-78
2022/09/04 05:31:10;;;;;;;26.67;23.77;;;16.70;99.90;;;;;;5020612;28;46859;-78
2022/09/04 05:33:54;;;;;;;25.33;22.77;;;16.60;99.90;;;;;;5073904;28;48479;-79
2022/09/04 05:36:36;;;;;;;27.33;24.25;;;16.60;99.90;;;;;;5070686;28;38184;-78
2022/09/04 05:39:10;;;;;;;31.25;27.20;;;16.60;99.90;;;;;;5061554;28;39789;-78
2022/09/04 05:42:00;;;;;;;26.63;24.00;;;16.70;99.90;;;;;;5056098;28;39063;-79
2022/09/04 05:44:35;;;;;;;27.73;24.10;;;16.70;99.90;;;;;;5058102;28;47042;-78
2022/09/04 05:47:23;;;;;;;27.08;24.17;;;16.70;99.90;;;;;;5075188;28;38339;-78
2022/09/04 05:50:05;;;;;;;27.63;24.60;;;16.70;99.90;;;;;;5053962;28;38609;-79
2022/09/04 05:53:00;;;;;;;28.48;25.48;;;16.80;99.90;;;;;;5071613;28;49213;-78
2022/09/04 05:55:54;;;;;;;30.35;27.10;;;16.80;99.90;;;;;;5074760;28;39086;-78
2022/09/04 05:58:44;;;;;;;30.70;27.58;;;16.80;99.90;;;;;;5076302;28;37574;-78
2022/09/04 06:01:48;;;;;;;34.42;30.80;;;17.00;99.90;;;;;;5061508;28;38622;-78
2022/09/04 06:04:33;;;;;;;33.83;30.17;;;17.10;99.90;;;;;;5072569;28;39714;-78
2022/09/04 06:07:13;;;;;;;32.13;28.65;;;17.20;99.90;;;;;;5054498;28;39069;-78
2022/09/04 06:09:42;;;;;;;37.25;32.67;;;17.30;99.90;;;;;;5072595;28;49024;-78
2022/09/04 06:12:45;;;;;;;34.28;30.58;;;17.40;99.90;;;;;;5051392;28;36459;-79
2022/09/04 06:15:15;;;;;;;33.92;30.27;;;17.50;99.90;;;;;;5071550;28;37685;-79
2022/09/04 06:18:09;;;;;;;37.00;31.88;;;17.60;99.90;;;;;;5077987;28;36825;-79
2022/09/04 06:20:56;;;;;;;35.25;30.83;;;17.70;99.90;;;;;;5074860;28;48407;-79
2022/09/04 06:23:37;;;;;;;37.88;31.55;;;17.80;99.90;;;;;;5078766;28;39670;-80
2022/09/04 06:26:23;;;;;;;40.22;35.08;;;17.90;99.90;;;;;;5083290;28;39307;-80
2022/09/04 06:28:50;;;;;;;40.67;34.90;;;17.90;99.90;;;;;;5067942;28;20130;-80
2022/09/04 06:31:19;;;;;;;41.83;36.88;;;18.00;99.90;;;;;;5062545;28;36499;-80
2022/09/04 06:34:11;;;;;;;48.47;39.75;;;18.10;99.90;;;;;;5063288;28;40090;-79
2022/09/04 06:36:49;;;;;;;62.63;46.38;;;18.20;99.90;;;;;;5049801;28;46833;-78
2022/09/04 06:39:43;;;;;;;62.50;44.60;;;18.20;99.90;;;;;;5076183;28;38274;-78
2022/09/04 06:42:38;;;;;;;64.45;46.47;;;18.20;99.90;;;;;;5077958;28;37866;-78
2022/09/04 06:45:31;;;;;;;72.55;50.40;;;18.40;99.90;;;;;;5056703;28;39268;-78
2022/09/04 06:48:15;;;;;;;74.07;49.47;;;18.40;99.90;;;;;;5057851;28;38466;-78
2022/09/04 06:50:54;;;;;;;79.63;50.85;;;18.50;99.90;;;;;;5074008;28;47206;-79
2022/09/04 06:53:37;;;;;;;83.03;51.45;;;18.40;99.90;;;;;;5076231;28;38052;-79
2022/09/04 06:56:41;;;;;;;78.35;50.67;;;18.40;99.90;;;;;;5076735;28;39522;-78
2022/09/04 06:59:53;;;;;;;85.30;53.10;;;18.50;99.90;;;;;;5079020;28;38252;-78
2022/09/04 07:02:51;;;;;;;85.40;52.63;;;18.50;99.90;;;;;;5055791;28;37372;-77
2022/09/04 07:05:23;;;;;;;74.80;48.22;;;18.60;99.90;;;;;;5027186;28;37694;-78
2022/09/04 07:08:07;;;;;;;74.30;47.47;;;18.70;99.90;;;;;;5059834;28;39797;-78
2022/09/04 07:10:40;;;;;;;86.47;52.47;;;18.70;99.90;;;;;;5077673;28;48393;-78
2022/09/04 07:13:39;;;;;;;77.03;48.38;;;18.80;99.90;;;;;;5071975;28;39083;-79
2022/09/04 07:16:24;;;;;;;65.60;44.53;;;19.00;99.90;;;;;;5062822;28;37902;-79
2022/09/04 07:19:09;;;;;;;74.43;47.15;;;19.10;99.90;;;;;;5058530;28;38895;-78
2022/09/04 07:22:16;;;;;;;84.47;49.70;;;19.10;99.90;;;;;;5073002;28;48288;-78
2022/09/04 07:25:22;;;;;;;66.68;43.92;;;19.00;99.90;;;;;;5049047;28;47162;-78
2022/09/04 07:28:11;;;;;;;75.95;49.17;;;19.00;99.90;;;;;;5078504;28;48593;-79
2022/09/04 07:30:51;;;;;;;76.82;51.47;;;18.90;99.90;;;;;;5060320;28;47431;-78
2022/09/04 07:33:32;;;;;;;91.63;54.60;;;18.90;99.90;;;;;;5055497;28;39961;-78
2022/09/04 07:36:07;;;;;;;82.15;50.58;;;19.00;99.90;;;;;;5065890;28;36724;-78
2022/09/04 07:38:47;;;;;;;80.65;49.60;;;19.20;99.90;;;;;;5074507;28;48686;-78
2022/09/04 07:41:34;;;;;;;84.20;50.63;;;19.10;99.90;;;;;;5065303;28;38831;-78
2022/09/04 07:44:48;;;;;;;85.00;50.58;;;19.40;99.90;;;;;;5075438;28;38289;-78
2022/09/04 07:47:44;;;;;;;78.40;46.97;;;19.60;99.90;;;;;;5001572;28;47286;-77
2022/09/04 07:50:24;;;;;;;74.10;45.88;;;19.80;99.90;;;;;;5045583;28;39622;-76
2022/09/04 07:53:19;;;;;;;95.80;52.13;;;19.80;99.90;;;;;;5081449;28;38839;-77
2022/09/04 07:55:54;;;;;;;98.30;55.17;;;19.80;99.90;;;;;;5054956;28;47042;-76
2022/09/04 07:58:48;;;;;;;94.28;53.50;;;19.70;99.90;;;;;;5054082;28;39067;-77
2022/09/04 08:01:41;;;;;;;94.40;53.47;;;19.60;99.90;;;;;;5083668;28;38909;-77
2022/09/04 08:04:29;;;;;;;89.78;51.67;;;19.60;99.90;;;;;;5075503;28;39027;-76
2022/09/04 08:07:11;;;;;;;89.35;52.50;;;20.00;99.90;;;;;;5062669;28;37420;-76
2022/09/04 08:09:57;;;;;;;89.10;53.05;;;20.10;99.90;;;;;;5055823;28;47083;-77
2022/09/04 08:12:44;;;;;;;91.85;52.40;;;20.20;99.90;;;;;;5053034;28;39273;-76
2022/09/04 08:15:20;;;;;;;93.43;53.83;;;20.50;99.90;;;;;;5049840;28;38679;-77
2022/09/04 08:17:57;;;;;;;95.28;54.47;;;20.50;99.90;;;;;;5068048;28;37503;-77
2022/09/04 08:20:29;;;;;;;79.97;48.55;;;20.60;99.90;;;;;;5061746;28;37003;-77
2022/09/04 08:22:55;;;;;;;80.20;48.58;;;20.80;99.90;;;;;;5063075;28;36070;-77
2022/09/04 08:25:31;;;;;;;82.93;50.05;;;21.30;99.90;;;;;;5058534;28;38716;-77
2022/09/04 08:28:02;;;;;;;88.68;52.25;;;21.60;99.90;;;;;;5060846;28;37685;-77
2022/09/04 08:30:40;;;;;;;79.90;49.60;;;21.60;99.90;;;;;;5057516;28;47292;-77
2022/09/04 08:33:18;;;;;;;82.93;49.85;;;21.20;99.90;;;;;;5055895;28;37471;-77
2022/09/04 08:36:00;;;;;;;79.82;50.67;;;21.30;99.90;;;;;;5057588;28;37841;-77
2022/09/04 08:38:55;;;;;;;84.07;52.28;;;21.60;99.90;;;;;;5060299;28;39513;-78
2022/09/04 08:41:49;;;;;;;72.55;47.33;;;21.80;99.90;;;;;;5064372;28;37379;-79
2022/09/04 08:44:42;;;;;;;69.75;45.10;;;22.10;99.90;;;;;;5059545;28;37694;-78
2022/09/04 08:47:42;;;;;;;65.68;45.22;;;22.60;99.90;;;;;;5054166;28;38996;-78
2022/09/04 08:50:38;;;;;;;64.93;44.17;;;22.90;99.90;;;;;;5054018;28;37712;-78
2022/09/04 08:53:13;;;;;;;67.25;46.22;;;23.20;99.90;;;;;;5079588;28;37103;-79
2022/09/04 08:55:45;;;;;;;69.35;47.00;;;23.30;99.90;;;;;;5066998;28;37490;-79
2022/09/04 08:58:48;;;;;;;64.78;43.38;;;22.90;99.90;;;;;;5065865;28;37981;-79
2022/09/04 09:02:09;;;;;;;65.65;44.80;;;23.10;99.90;;;;;;5065296;28;38078;-79
2022/09/04 09:04:48;;;;;;;63.97;45.75;;;23.20;99.90;;;;;;5021331;28;50162;-78
2022/09/04 09:07:47;;;;;;;63.90;44.33;;;23.00;99.90;;;;;;5064127;28;37727;-79
2022/09/04 09:10:47;;;;;;;55.28;41.28;;;22.90;99.90;;;;;;5058143;28;38446;-80
2022/09/04 09:13:47;;;;;;;63.58;43.13;;;22.90;99.90;;;;;;5071684;28;39144;-78
2022/09/04 09:16:31;;;;;;;50.70;35.22;;;23.20;99.90;;;;;;5067681;28;37535;-78
2022/09/04 09:19:19;;;;;;;53.03;37.83;;;23.50;99.90;;;;;;5060749;28;37407;-79
2022/09/04 09:21:52;;;;;;;41.28;32.35;;;23.70;99.90;;;;;;5070275;28;47183;-77
2022/09/04 09:24:41;;;;;;;50.85;36.53;;;23.90;99.90;;;;;;5059367;28;38607;-78
2022/09/04 09:27:28;;;;;;;57.15;40.55;;;24.00;99.90;;;;;;5052548;28;37942;-78
2022/09/04 09:30:08;;;;;;;51.22;38.55;;;23.90;99.90;;;;;;5039101;28;37090;-78
2022/09/04 09:33:06;;;;;;;60.67;43.85;;;23.60;99.90;;;;;;5044432;28;48359;-79
2022/09/04 09:36:05;;;;;;;63.85;45.70;;;23.30;99.90;;;;;;5051591;28;47028;-79
2022/09/04 09:39:00;;;;;;;60.42;44.83;;;23.20;99.90;;;;;;5061118;28;48797;-79
2022/09/04 09:41:45;;;;;;;58.47;40.65;;;23.30;99.90;;;;;;5060484;28;37599;-79
2022/09/04 09:44:52;;;;;;;47.72;37.47;;;23.50;99.90;;;;;;5049374;28;37516;-79
2022/09/04 09:47:39;;;;;;;41.55;33.72;;;24.10;99.90;;;;;;5048371;28;38546;-79
2022/09/04 09:50:20;;;;;;;42.25;32.10;;;24.60;99.90;;;;;;5060067;28;38540;-78
2022/09/04 09:52:58;;;;;;;50.45;38.92;;;24.90;99.90;;;;;;5065100;28;35117;-79
2022/09/04 09:55:55;;;;;;;42.58;33.10;;;25.00;99.90;;;;;;5063968;28;37628;-78
2022/09/04 09:58:59;;;;;;;38.17;31.35;;;25.00;99.90;;;;;;5055672;28;37378;-78
2022/09/04 10:01:44;;;;;;;35.70;29.83;;;25.50;99.90;;;;;;5047679;28;38659;-79
2022/09/04 10:04:45;;;;;;;37.58;29.20;;;25.30;99.90;;;;;;5050412;28;38333;-77
2022/09/04 10:07:37;;;;;;;32.10;27.40;;;25.30;99.90;;;;;;5052687;28;39623;-75
2022/09/04 10:10:15;;;;;;;;;;;25.30;99.90;;;;;;5065350;28;37571;-76
2022/09/04 10:13:14;;;;;;;31.92;25.98;;;25.60;99.90;;;;;;5050087;28;37933;-79
2022/09/04 10:16:18;;;;;;;32.00;26.02;;;26.00;99.90;;;;;;5052567;28;47117;-77
2022/09/04 10:19:11;;;;;;;27.90;23.05;;;25.70;99.90;;;;;;5083385;28;48672;-77
2022/09/04 10:22:09;;;;;;;27.92;24.20;;;26.10;99.90;;;;;;5054282;28;47070;-77
2022/09/04 10:24:49;;;;;;;30.23;24.85;;;26.30;99.90;;;;;;5055729;28;46596;-78
2022/09/04 10:27:30;;;;;;;26.67;22.17;;;25.80;99.90;;;;;;5073887;28;38017;-77
2022/09/04 10:30:21;;;;;;;31.10;24.77;;;25.90;99.90;;;;;;5059012;28;38856;-77
2022/09/04 10:33:26;;;;;;;28.83;21.33;;;25.90;99.90;;;;;;5081378;28;48631;-77
2022/09/04 10:35:52;;;;;;;31.17;25.50;;;26.10;99.90;;;;;;5070227;28;49228;-77
2022/09/04 10:40:34;;;;;;;29.65;22.30;;;26.40;99.90;;;;;;5076221;28;37535;-77
2022/09/04 10:41:55;;;;;;;33.28;26.15;;;26.10;99.90;;;;;;5074360;28;48326;-77
2022/09/04 10:44:49;;;;;;;35.10;26.17;;;25.30;99.90;;;;;;5074766;28;39111;-78
2022/09/04 10:47:27;;;;;;;27.42;21.40;;;25.20;99.90;;;;;;5058077;28;38155;-77
2022/09/04 10:50:34;;;;;;;27.38;20.92;;;25.70;99.90;;;;;;5088898;28;37630;-76
2022/09/04 10:53:30;;;;;;;27.65;21.95;;;25.80;99.90;;;;;;5080984;28;48685;-76
2022/09/04 10:56:11;;;;;;;20.10;16.42;;;26.10;99.90;;;;;;5070340;28;48735;-77
2022/09/04 10:59:04;;;;;;;19.73;16.33;;;26.10;99.90;;;;;;5048561;28;47369;-76
2022/09/04 11:01:51;;;;;;;18.42;13.65;;;26.50;99.90;;;;;;5057789;28;48695;-83
2022/09/04 11:04:36;;;;;;;20.27;15.60;;;26.80;99.90;;;;;;5058774;28;37439;-85
2022/09/04 11:07:21;;;;;;;27.38;21.75;;;26.90;99.90;;;;;;5065308;28;37311;-86
2022/09/04 11:10:30;;;;;;;24.65;18.05;;;26.20;99.90;;;;;;5059377;28;36921;-85
2022/09/04 11:13:15;;;;;;;23.60;16.65;;;26.30;99.90;;;;;;5060363;28;47468;-87
2022/09/04 11:15:59;;;;;;;22.30;17.00;;;26.40;99.90;;;;;;5066753;28;46854;-86
2022/09/04 11:18:49;;;;;;;19.77;15.02;;;26.00;99.90;;;;;;5067977;28;38078;-86
2022/09/04 11:21:29;;;;;;;35.75;24.25;;;26.20;99.90;;;;;;5008364;28;38754;-87
2022/09/04 11:24:20;;;;;;;16.45;12.82;;;26.90;99.90;;;;;;5038126;28;38168;-89
2022/09/04 11:27:19;;;;;;;17.60;13.85;;;27.10;99.90;;;;;;5033000;28;47251;-88
2022/09/04 11:30:13;;;;;;;17.77;11.77;;;27.20;99.90;;;;;;5067386;28;47392;-87
2022/09/04 11:32:50;;;;;;;16.40;11.30;;;26.40;99.90;;;;;;5079975;28;48166;-86
2022/09/04 11:36:14;;;;;;;11.38;8.43;;;26.00;99.90;;;;;;5057404;28;38160;-86
2022/09/04 11:38:58;;;;;;;17.70;12.60;;;26.50;99.90;;;;;;4959715;28;47216;-87
2022/09/04 11:42:02;;;;;;;14.43;11.02;;;26.70;99.90;;;;;;4964932;28;38530;-85
2022/09/04 11:44:40;;;;;;;14.80;9.07;;;26.50;99.90;;;;;;5044365;28;47207;-85
2022/09/04 11:47:51;;;;;;;14.73;11.80;;;26.50;99.90;;;;;;5071499;28;38521;-85
2022/09/04 11:50:25;;;;;;;17.02;11.68;;;26.20;99.90;;;;;;5059862;28;38910;-85
2022/09/04 11:53:29;;;;;;;14.40;10.73;;;26.20;99.90;;;;;;5058829;28;39223;-83
2022/09/04 11:56:17;;;;;;;10.93;8.65;;;26.40;99.90;;;;;;5043569;28;46966;-83
2022/09/04 11:59:14;;;;;;;11.82;8.32;;;26.70;99.90;;;;;;5061306;28;47386;-84
2022/09/04 12:02:01;;;;;;;11.73;8.88;;;26.90;99.90;;;;;;5054941;28;47001;-84
2022/09/04 12:05:04;;;;;;;9.95;6.85;;;26.70;99.90;;;;;;5052199;28;46533;-84
2022/09/04 12:07:51;;;;;;;9.95;7.75;;;26.90;99.90;;;;;;5051667;28;45997;-83
2022/09/04 12:11:07;;;;;;;17.25;12.63;;;26.70;99.90;;;;;;5064034;28;36796;-83
2022/09/04 12:13:42;;;;;;;12.02;9.52;;;26.60;99.90;;;;;;5031841;28;47224;-82
2022/09/04 12:16:29;;;;;;;12.10;8.05;;;26.60;99.90;;;;;;5055520;28;39382;-82
2022/09/04 12:19:39;;;;;;;11.15;8.10;;;27.10;99.90;;;;;;5072857;28;37215;-83
2022/09/04 12:22:44;;;;;;;16.05;11.55;;;26.80;99.90;;;;;;5056387;28;47122;-83
2022/09/04 12:25:10;;;;;;;8.43;6.90;;;26.50;99.90;;;;;;5072401;28;39275;-82
2022/09/04 12:28:14;;;;;;;13.25;10.02;;;26.80;99.90;;;;;;5073762;28;36640;-82
2022/09/04 12:30:59;;;;;;;10.02;8.25;;;26.60;99.90;;;;;;5061323;28;47213;-81
2022/09/04 12:33:58;;;;;;;8.98;6.70;;;26.40;99.90;;;;;;5058674;28;37886;-82
2022/09/04 12:37:07;;;;;;;10.70;8.13;;;26.70;99.90;;;;;;5048225;28;38835;-81
2022/09/04 12:40:16;;;;;;;7.82;5.65;;;27.20;99.90;;;;;;5055430;28;47057;-82
2022/09/04 12:42:56;;;;;;;8.30;5.20;;;27.40;99.90;;;;;;5057734;28;48171;-82
2022/09/04 12:45:28;;;;;;;6.40;4.88;;;27.00;99.90;;;;;;5055659;28;37781;-82
2022/09/04 12:48:17;;;;;;;4.53;3.47;;;27.10;99.90;;;;;;5060675;28;38673;-83
2022/09/04 12:50:59;;;;;;;6.72;3.45;;;26.90;99.90;;;;;;5072868;28;46829;-82
2022/09/04 12:53:50;;;;;;;8.50;3.33;;;26.80;99.90;;;;;;5067287;28;38277;-82
2022/09/04 12:56:25;;;;;;;5.20;3.03;;;26.90;99.90;;;;;;5067414;28;37128;-81
2022/09/04 12:59:32;;;;;;;3.60;2.75;;;26.60;99.90;;;;;;5064992;28;39181;-81
2022/09/04 13:01:59;;;;;;;4.82;2.70;;;26.70;99.90;;;;;;5063235;28;48105;-80
2022/09/04 13:04:48;;;;;;;6.93;2.53;;;26.50;99.90;;;;;;5064579;28;38681;-80
2022/09/04 13:07:17;;;;;;;5.00;2.85;;;26.40;99.90;;;;;;5089488;28;37382;-80
2022/09/04 13:10:31;;;;;;;2.55;1.70;;;26.40;99.90;;;;;;5072857;28;40522;-79
2022/09/04 13:13:30;;;;;;;4.18;2.25;;;26.90;99.90;;;;;;5073909;28;44474;-80
2022/09/04 13:16:19;;;;;;;2.95;2.35;;;27.20;99.90;;;;;;5072757;28;47076;-80
2022/09/04 13:18:59;;;;;;;4.85;3.00;;;27.40;99.90;;;;;;5069229;28;47146;-80
2022/09/04 13:21:43;;;;;;;3.60;2.22;;;27.40;99.90;;;;;;5058968;28;39721;-80
2022/09/04 13:24:25;;;;;;;2.55;1.80;;;27.60;99.90;;;;;;5079646;28;39018;-81
2022/09/04 13:27:25;;;;;;;3.33;2.33;;;27.80;99.90;;;;;;5063624;28;39635;-80
2022/09/04 13:29:57;;;;;;;3.67;2.40;;;27.60;99.90;;;;;;5059786;28;47445;-80
2022/09/04 13:32:42;;;;;;;3.50;2.00;;;27.10;99.90;;;;;;5058924;28;39411;-79
2022/09/04 13:35:23;;;;;;;4.75;2.00;;;26.90;99.90;;;;;;5073117;28;39124;-78
2022/09/04 13:37:53;;;;;;;2.30;1.70;;;27.10;99.90;;;;;;5063313;28;37070;-79
2022/09/04 13:40:58;;;;;;;5.55;3.05;;;27.30;99.90;;;;;;5065542;28;36262;-79
2022/09/04 13:43:50;;;;;;;8.35;3.97;;;27.10;99.90;;;;;;5069457;28;39113;-79
2022/09/04 13:46:28;;;;;;;4.20;3.60;;;26.60;99.90;;;;;;5074211;28;38468;-78
2022/09/04 13:49:08;;;;;;;4.00;2.80;;;26.40;99.90;;;;;;5074800;28;37112;-78
2022/09/04 13:51:42;;;;;;;5.40;3.60;;;26.60;99.90;;;;;;5085863;28;47963;-76
2022/09/04 13:54:29;;;;;;;4.72;3.20;;;26.70;99.90;;;;;;5068456;28;37945;-77
2022/09/04 13:57:42;;;;;;;7.68;3.40;;;26.80;99.90;;;;;;5060521;28;37267;-77
2022/09/04 14:00:09;;;;;;;3.33;3.03;;;27.10;99.90;;;;;;5019189;28;49019;-77
2022/09/04 14:02:37;;;;;;;3.63;2.85;;;27.30;99.90;;;;;;5013454;28;37453;-79
2022/09/04 14:05:19;;;;;;;4.38;3.10;;;27.50;99.90;;;;;;5049966;28;39829;-79
2022/09/04 14:07:55;;;;;;;4.72;3.33;;;27.40;99.90;;;;;;5077799;28;47481;-76
2022/09/04 14:10:37;;;;;;;5.38;3.47;;;27.30;99.90;;;;;;5076910;28;39361;-76